Time;durP1;ratioP1;P1;durP2;ratioP2;P2;SDS_P1;SDS_P2;PMS_P1;PMS_P2;Temp;Humidity;BMP_temperature;BMP_pressure;BME280_temperature;BME280_humidity;BME280_pressure;Samples;Min_cycle;Max_cycle;Signal;HPM_P1;HPM_P2
2022/01/22 00:01:43;;;;;;;9.97;4.37;;;;;;;;;;5034880;28;20190;-83
2022/01/22 00:04:09;;;;;;;8.10;4.03;;;;;;;;;;5035367;28;20222;-83
2022/01/22 00:06:35;;;;;;;11.17;4.03;;;;;;;;;;5033792;28;20185;-83
2022/01/22 00:09:02;;;;;;;6.03;3.17;;;-1.60;99.90;;;;;;5033160;28;20204;-83
2022/01/22 00:11:34;;;;;;;8.17;4.50;;;-0.40;99.90;;;;;;5032602;28;20239;-83
2022/01/22 00:16:45;;;;;;;7.70;4.00;;;-1.60;99.90;;;;;;5033542;28;20175;-83
2022/01/22 00:19:10;;;;;;;8.00;4.00;;;0.30;99.90;;;;;;5033367;28;20545;-83
2022/01/22 00:21:37;;;;;;;9.87;5.13;;;-1.70;99.90;;;;;;4999570;28;20181;-83
2022/01/22 00:24:09;;;;;;;9.20;4.37;;;-0.90;99.90;;;;;;5032212;28;20640;-83
2022/01/22 00:26:35;;;;;;;10.33;4.97;;;;;;;;;;5016599;28;20185;-83
2022/01/22 00:29:01;;;;;;;8.47;4.00;;;;;;;;;;5033713;28;20210;-83
2022/01/22 00:31:27;;;;;;;7.90;4.07;;;;;;;;;;5033102;28;20275;-83
2022/01/22 00:33:53;;;;;;;14.73;4.10;;;-1.80;99.90;;;;;;5033093;28;20185;-83
2022/01/22 00:36:18;;;;;;;11.30;5.07;;;1.40;99.90;;;;;;5032123;28;20187;-83
2022/01/22 00:38:44;;;;;;;10.63;5.00;;;1.40;99.90;;;;;;5031726;28;20192;-83
2022/01/22 00:41:10;;;;;;;9.03;4.73;;;-1.80;99.90;;;;;;5033435;28;20184;-83
2022/01/22 00:43:36;;;;;;;10.37;3.97;;;-0.80;99.90;;;;;;4999300;28;20670;-83
2022/01/22 00:46:02;;;;;;;7.80;4.43;;;0.90;99.90;;;;;;5033494;28;20674;-84
2022/01/22 00:48:28;;;;;;;7.50;4.30;;;-1.70;99.90;;;;;;5033012;28;20188;-83
2022/01/22 00:50:56;;;;;;;8.57;4.90;;;-1.70;99.90;;;;;;5032602;28;20183;-83
2022/01/22 00:53:22;;;;;;;8.33;4.17;;;;;;;;;;5032149;28;20186;-84
2022/01/22 00:55:48;;;;;;;6.73;3.43;;;;;;;;;;5032923;28;20632;-83
2022/01/22 00:58:14;;;;;;;12.47;3.40;;;-2.00;99.90;;;;;;5033257;28;20183;-84
2022/01/22 01:00:40;;;;;;;6.97;4.10;;;-1.50;99.90;;;;;;5031503;28;20186;-84
2022/01/22 01:03:05;;;;;;;9.73;4.03;;;-2.10;99.90;;;;;;5031687;28;20238;-83
2022/01/22 01:05:31;;;;;;;8.13;4.03;;;;;;;;;;5031900;28;20185;-83
2022/01/22 01:07:57;;;;;;;8.63;4.43;;;-2.00;99.90;;;;;;5032521;28;20267;-83
2022/01/22 01:10:23;;;;;;;10.63;3.67;;;;;;;;;;5031927;28;20205;-83
2022/01/22 01:12:50;;;;;;;9.07;3.67;;;;;;;;;;5031618;28;20180;-83
2022/01/22 01:18:06;;;;;;;9.90;4.53;;;-0.20;99.90;;;;;;5032714;28;20180;-83
2022/01/22 01:34:17;;;;;;;6.37;3.23;;;;;;;;;;5031883;28;20256;-83
2022/01/22 01:36:44;;;;;;;8.03;4.03;;;-2.50;99.90;;;;;;5015292;28;20224;-83
2022/01/22 01:39:14;;;;;;;8.70;3.90;;;-1.70;99.90;;;;;;5015283;28;20268;-83
2022/01/22 01:41:52;;;;;;;7.90;4.53;;;;;;;;;;5031544;28;20236;-83
2022/01/22 01:44:18;;;;;;;8.33;3.43;;;;;;;;;;5033041;28;20191;-83
2022/01/22 01:46:50;;;;;;;6.37;3.53;;;-2.50;99.90;;;;;;5018513;28;20186;-83
2022/01/22 01:49:17;;;;;;;8.03;4.00;;;-0.70;99.90;;;;;;5035282;28;20236;-82
2022/01/22 01:51:45;;;;;;;9.37;4.37;;;-0.50;99.90;;;;;;5036415;28;20212;-82
2022/01/22 01:59:24;;;;;;;8.17;4.10;;;;;;;;;;5036542;28;20242;-83
2022/01/22 02:01:50;;;;;;;11.23;3.70;;;-2.50;99.90;;;;;;5035538;28;20235;-82
2022/01/22 02:04:15;;;;;;;13.33;4.40;;;-0.30;99.90;;;;;;5034259;28;20627;-82
2022/01/22 02:06:42;;;;;;;8.03;3.93;;;;;;;;;;5018597;28;20234;-82
2022/01/22 02:09:10;;;;;;;7.50;4.17;;;;;;;;;;5018238;28;20304;-82
2022/01/22 02:11:36;;;;;;;4.43;2.90;;;-2.70;99.90;;;;;;5034733;28;20188;-83
2022/01/22 02:24:52;;;;;;;9.07;3.93;;;-0.70;99.90;;;;;;5035662;28;20223;-82
2022/01/22 02:27:19;;;;;;;5.67;3.53;;;;;;;;;;5034724;28;20181;-81
2022/01/22 02:29:45;;;;;;;7.93;4.10;;;-2.80;99.90;;;;;;5018088;28;20239;-81
2022/01/22 02:35:11;;;;;;;13.77;4.40;;;-2.80;99.90;;;;;;5034535;28;20217;-83
2022/01/22 02:37:42;;;;;;;9.80;3.63;;;;;;;;;;5019094;28;20212;-83
2022/01/22 02:40:13;;;;;;;7.20;3.90;;;-2.90;99.90;;;;;;5035302;28;20261;-83
2022/01/22 02:42:39;;;;;;;11.30;3.67;;;;;;;;;;5033840;28;20271;-83
2022/01/22 02:45:10;;;;;;;10.33;3.97;;;-3.00;99.90;;;;;;5035456;28;20183;-82
2022/01/22 02:47:36;;;;;;;12.53;4.00;;;-3.00;99.90;;;;;;5035934;28;20162;-84
2022/01/22 02:50:03;;;;;;;8.07;3.53;;;-0.20;99.90;;;;;;5033700;28;20210;-83
2022/01/22 02:52:28;;;;;;;11.57;4.90;;;-3.00;99.90;;;;;;5034086;28;20275;-83
2022/01/22 02:54:56;;;;;;;14.30;4.37;;;-2.50;99.90;;;;;;5033826;28;20265;-84
2022/01/22 02:57:21;;;;;;;5.43;3.10;;;-3.20;99.90;;;;;;5035268;28;20238;-82
2022/01/22 02:59:47;;;;;;;7.07;3.43;;;-0.50;99.90;;;;;;5017514;28;20192;-83
2022/01/22 03:02:13;;;;;;;5.83;3.60;;;-0.40;99.90;;;;;;5034725;28;20219;-83
2022/01/22 03:04:39;;;;;;;9.40;3.57;;;-0.50;99.90;;;;;;5033754;28;20599;-83
2022/01/22 03:07:06;;;;;;;8.20;3.67;;;;;;;;;;5034502;28;20237;-83
2022/01/22 03:09:39;;;;;;;11.83;4.73;;;;;;;;;;5033646;28;20250;-83
2022/01/22 03:28:03;;;;;;;17.70;5.30;;;-1.90;99.90;;;;;;5033417;28;20209;-84
2022/01/22 03:30:28;;;;;;;11.03;4.93;;;-3.10;99.90;;;;;;5033574;28;20665;-83
2022/01/22 03:32:56;;;;;;;4.77;3.90;;;-3.00;99.90;;;;;;5033265;28;20192;-84
2022/01/22 03:37:52;;;;;;;15.37;6.20;;;-1.40;99.90;;;;;;5034502;28;20187;-84
2022/01/22 03:40:23;;;;;;;15.43;6.83;;;-3.10;99.90;;;;;;5032886;28;20181;-84
2022/01/22 03:42:51;;;;;;;12.63;6.23;;;-3.00;99.90;;;;;;5034485;28;20168;-84
2022/01/22 03:45:18;;;;;;;14.03;6.20;;;;;;;;;;5034023;28;20650;-84
2022/01/22 03:47:44;;;;;;;17.20;7.37;;;;;;;;;;5033079;28;20179;-84
2022/01/22 03:50:11;;;;;;;8.87;5.53;;;-2.90;99.90;;;;;;5032583;28;20209;-84
2022/01/22 03:52:38;;;;;;;17.83;7.87;;;;;;;;;;5034019;28;20279;-83
2022/01/22 03:55:06;;;;;;;19.03;8.07;;;-2.80;99.90;;;;;;5032574;28;20183;-84
2022/01/22 03:57:32;;;;;;;14.33;7.73;;;-2.80;99.90;;;;;;5016482;28;20649;-83
2022/01/22 03:59:58;;;;;;;14.50;7.83;;;;;;;;;;5016283;28;20187;-83
2022/01/22 04:05:08;;;;;;;20.97;10.43;;;-2.70;99.90;;;;;;5033647;28;20241;-83
2022/01/22 04:08:07;;;;;;;13.13;7.87;;;-2.70;99.90;;;;;;5015853;28;20184;-85
2022/01/22 04:10:29;;;;;;;17.90;8.77;;;;;;;;;;5033475;28;20220;-84
2022/01/22 04:13:03;;;;;;;14.73;9.10;;;-2.70;99.90;;;;;;5032722;28;20196;-85
2022/01/22 04:15:32;;;;;;;20.90;8.60;;;;;;;;;;5032750;28;20164;-84
2022/01/22 04:28:44;;;;;;;16.40;8.73;;;;;;;;;;5032558;28;20679;-85
2022/01/22 04:31:10;;;;;;;19.17;9.90;;;;;;;;;;5031954;28;20195;-85
2022/01/22 04:33:37;;;;;;;18.40;8.40;;;-2.70;99.90;;;;;;5015927;28;20185;-86
2022/01/22 04:36:04;;;;;;;12.13;5.83;;;-2.70;99.90;;;;;;5015460;28;20189;-85
2022/01/22 04:38:29;;;;;;;18.30;7.97;;;-2.70;99.90;;;;;;5016145;28;20191;-85
2022/01/22 04:40:55;;;;;;;14.93;8.47;;;;;;;;;;5015548;28;20606;-84
2022/01/22 04:43:21;;;;;;;12.07;6.93;;;;;;;;;;5015494;28;20246;-84
2022/01/22 04:46:07;;;;;;;16.23;7.90;;;;;;;;;;5031889;28;20631;-84
2022/01/22 04:56:38;;;;;;;18.33;9.70;;;-2.50;99.90;;;;;;5033316;28;20308;-84
2022/01/22 04:59:04;;;;;;;23.57;12.03;;;;;;;;;;4999224;28;20283;-83
2022/01/22 05:01:30;;;;;;;17.80;9.53;;;-2.50;99.90;;;;;;5031188;28;20192;-84
2022/01/22 05:03:56;;;;;;;22.43;11.00;;;;;;;;;;5031734;28;20235;-84
2022/01/22 05:06:22;;;;;;;16.70;9.60;;;;;;;;;;5032693;28;20259;-83
2022/01/22 05:08:48;;;;;;;18.13;8.13;;;;;;;;;;5032114;28;20216;-83
2022/01/22 05:11:14;;;;;;;18.97;8.77;;;;;;;;;;5031588;28;20631;-84
2022/01/22 05:13:40;;;;;;;18.43;10.80;;;-2.40;99.90;;;;;;5031875;28;20185;-84
2022/01/22 05:16:06;;;;;;;21.33;10.50;;;;;;;;;;4999349;28;20549;-84
2022/01/22 05:18:37;;;;;;;12.00;6.57;;;-2.40;99.90;;;;;;5017665;28;20187;-83
2022/01/22 05:21:09;;;;;;;19.43;9.63;;;1.30;99.90;;;;;;5036168;28;20178;-83
2022/01/22 05:23:36;;;;;;;17.20;9.77;;;;;;;;;;5036790;28;20167;-83
2022/01/22 05:26:09;;;;;;;22.13;10.43;;;;;;;;;;5020129;28;20280;-84
2022/01/22 05:29:12;;;;;;;20.63;10.67;;;;;;;;;;5035919;28;20219;-84
2022/01/22 05:39:29;;;;;;;19.77;11.37;;;-2.30;99.90;;;;;;5036249;28;20243;-83
2022/01/22 05:41:57;;;;;;;16.53;8.97;;;-2.30;99.90;;;;;;5036979;28;20180;-84
2022/01/22 05:44:23;;;;;;;22.57;8.93;;;;;;;;;;5035724;28;20269;-84
2022/01/22 05:46:51;;;;;;;24.20;9.33;;;;;;;;;;5019543;28;20284;-84
2022/01/22 05:49:20;;;;;;;21.93;12.07;;;-2.40;99.90;;;;;;5019570;28;20216;-85
2022/01/22 05:51:47;;;;;;;19.70;10.67;;;;;;;;;;5036116;28;20184;-85
2022/01/22 05:59:39;;;;;;;23.23;9.33;;;;;;;;;;5056550;28;20185;-84
2022/01/22 06:02:11;;;;;;;18.83;9.87;;;-2.10;99.90;;;;;;5057997;28;20169;-84
2022/01/22 06:04:37;;;;;;;18.43;8.80;;;-2.10;99.90;;;;;;5059233;28;20183;-84
2022/01/22 06:07:04;;;;;;;12.83;7.07;;;-2.20;99.90;;;;;;5059855;28;20169;-83
2022/01/22 06:09:32;;;;;;;18.60;9.10;;;;;;;;;;5060101;28;20207;-83
2022/01/22 06:12:14;;;;;;;15.00;7.37;;;;;;;;;;5060436;28;20205;-84
2022/01/22 06:14:40;;;;;;;20.07;10.50;;;;;;;;;;5046182;28;20162;-83
2022/01/22 06:17:06;;;;;;;14.13;8.00;;;;;;;;;;5059902;28;20205;-84
2022/01/22 06:19:32;;;;;;;18.83;9.27;;;;;;;;;;5060132;28;20165;-83
2022/01/22 06:21:59;;;;;;;16.70;8.33;;;;;;;;;;5043756;28;20171;-85
2022/01/22 06:24:25;;;;;;;18.07;9.43;;;;;;;;;;5059967;28;20182;-85
2022/01/22 06:26:51;;;;;;;18.67;8.27;;;;;;;;;;5042707;28;20167;-84
2022/01/22 06:29:17;;;;;;;9.60;6.20;;;;;;;;;;5058209;28;20212;-85
2022/01/22 06:31:43;;;;;;;13.93;6.90;;;;;;;;;;5059281;28;20184;-85
2022/01/22 06:34:09;;;;;;;13.43;8.37;;;;;;;;;;5059263;28;20192;-86
2022/01/22 06:36:36;;;;;;;14.63;7.57;;;;;;;;;;5042059;28;20283;-84
2022/01/22 06:39:12;;;;;;;15.13;7.23;;;-2.20;99.90;;;;;;5041625;28;20189;-85
2022/01/22 06:41:44;;;;;;;18.40;7.17;;;;;;;;;;5038912;28;20205;-84
2022/01/22 06:44:22;;;;;;;13.13;7.43;;;-2.20;99.90;;;;;;5020323;28;20635;-84
2022/01/22 06:46:50;;;;;;;14.53;5.90;;;-2.20;99.90;;;;;;5035183;28;20196;-86
2022/01/22 06:49:17;;;;;;;16.90;7.27;;;;;;;;;;5034924;28;20231;-84
2022/01/22 06:51:43;;;;;;;13.87;6.27;;;;;;;;;;5018156;28;20649;-85
2022/01/22 06:54:11;;;;;;;15.87;5.70;;;-2.10;99.90;;;;;;5037084;28;20161;-85
2022/01/22 06:56:37;;;;;;;9.77;5.87;;;-2.20;99.90;;;;;;5019282;28;20551;-85
2022/01/22 06:59:06;;;;;;;16.57;6.13;;;-2.10;99.90;;;;;;5035714;28;20216;-84
2022/01/22 07:01:32;;;;;;;10.47;5.93;;;;;;;;;;5035339;28;20177;-85
2022/01/22 07:03:58;;;;;;;17.10;7.77;;;;;;;;;;5036043;28;20224;-83
2022/01/22 07:06:24;;;;;;;17.47;5.63;;;;;;;;;;5034264;28;20186;-83
2022/01/22 07:08:51;;;;;;;12.97;6.97;;;;;;;;;;5033748;28;20214;-83
2022/01/22 07:11:17;;;;;;;15.20;7.40;;;;;;;;;;5039094;28;20186;-86
2022/01/22 07:13:44;;;;;;;8.97;5.40;;;-2.00;99.90;;;;;;5030055;28;20286;-84
2022/01/22 07:16:10;;;;;;;10.70;5.20;;;;;;;;;;5030805;28;20216;-84
2022/01/22 07:18:36;;;;;;;13.97;6.23;;;;;;;;;;5023261;28;20564;-83
2022/01/22 07:21:09;;;;;;;12.53;6.23;;;-2.00;99.90;;;;;;5031619;28;20182;-82
2022/01/22 07:26:05;;;;;;;12.90;5.10;;;-2.00;99.90;;;;;;5032468;28;20181;-83
2022/01/22 07:28:31;;;;;;;10.93;4.57;;;;;;;;;;5032471;28;20207;-83
2022/01/22 07:30:59;;;;;;;10.80;5.97;;;;;;;;;;5030690;28;20647;-84
2022/01/22 07:33:26;;;;;;;8.53;5.83;;;;;;;;;;5031764;28;20708;-84
2022/01/22 07:35:53;;;;;;;13.07;4.77;;;;;;;;;;5030463;28;20244;-82
2022/01/22 07:38:19;;;;;;;8.23;5.23;;;;;;;;;;5029753;28;20258;-84
2022/01/22 07:40:45;;;;;;;9.30;5.83;;;;;;;;;;5028083;28;20201;-84
2022/01/22 07:43:11;;;;;;;18.30;8.00;;;;;;;;;;5033425;28;20193;-84
2022/01/22 07:45:37;;;;;;;16.03;7.17;;;;;;;;;;5030663;28;20634;-84
2022/01/22 07:48:03;;;;;;;17.80;9.00;;;;;;;;;;5027980;28;20182;-81
2022/01/22 07:50:29;;;;;;;15.93;7.97;;;;;;;;;;5032206;28;20215;-83
2022/01/22 07:52:57;;;;;;;10.63;7.03;;;;;;;;;;5012785;28;20202;-83
2022/01/22 07:55:23;;;;;;;13.03;6.07;;;;;;;;;;5010396;28;20292;-84
2022/01/22 07:57:49;;;;;;;19.63;9.20;;;;;;;;;;5028986;28;20189;-84
2022/01/22 08:00:16;;;;;;;16.97;8.00;;;;;;;;;;5030177;28;20188;-84
2022/01/22 08:02:43;;;;;;;17.53;9.30;;;-2.30;99.90;;;;;;5026067;28;20730;-83
2022/01/22 08:05:10;;;;;;;15.13;7.40;;;;;;;;;;5031174;28;20186;-83
2022/01/22 08:07:36;;;;;;;13.67;8.47;;;;;;;;;;5014269;28;20661;-83
2022/01/22 08:10:02;;;;;;;14.53;6.83;;;;;;;;;;5031026;28;20229;-83
2022/01/22 08:12:28;;;;;;;12.87;7.93;;;;;;;;;;5014416;28;20192;-84
2022/01/22 08:14:55;;;;;;;13.60;7.33;;;;;;;;;;5028504;28;20193;-84
2022/01/22 08:17:21;;;;;;;11.87;6.73;;;;;;;;;;5020606;28;20285;-83
2022/01/22 08:19:47;;;;;;;14.03;6.63;;;;;;;;;;5049622;28;20210;-83
2022/01/22 08:22:13;;;;;;;13.67;7.57;;;;;;;;;;5033292;28;20186;-83
2022/01/22 08:24:40;;;;;;;12.00;5.90;;;;;;;;;;5030506;28;20260;-81
2022/01/22 08:27:13;;;;;;;13.77;6.27;;;;;;;;;;5034961;28;20203;-83
2022/01/22 08:29:39;;;;;;;11.57;6.77;;;;;;;;;;5047947;28;20679;-81
2022/01/22 08:37:37;;;;;;;21.40;9.67;;;-2.00;99.90;;;;;;5038741;28;20691;-82
2022/01/22 08:40:04;;;;;;;30.60;14.50;;;-0.70;99.90;;;;;;5039492;28;20203;-84
2022/01/22 08:42:30;;;;;;;22.47;10.87;;;;;;;;;;5001584;28;20217;-84
2022/01/22 08:44:56;;;;;;;23.97;10.43;;;-1.90;99.90;;;;;;5015650;28;20188;-82
2022/01/22 08:47:22;;;;;;;22.13;10.73;;;-1.90;99.90;;;;;;5031841;28;20217;-82
2022/01/22 08:49:48;;;;;;;18.37;9.33;;;;;;;;;;5012116;28;20212;-82
2022/01/22 08:52:16;;;;;;;13.83;7.63;;;-1.90;99.90;;;;;;5023566;28;20657;-82
2022/01/22 08:54:43;;;;;;;13.60;6.47;;;-2.00;99.90;;;;;;5032668;28;20180;-82
2022/01/22 08:57:10;;;;;;;17.27;7.93;;;-1.90;99.90;;;;;;5032171;28;20227;-82
2022/01/22 08:59:36;;;;;;;19.83;7.63;;;-1.80;99.90;;;;;;5031490;28;20196;-82
2022/01/22 09:02:04;;;;;;;12.90;7.43;;;-0.70;99.90;;;;;;5033002;28;20189;-82
2022/01/22 09:04:31;;;;;;;14.67;8.20;;;-1.90;99.90;;;;;;5031110;28;20229;-81
2022/01/22 09:06:57;;;;;;;17.90;9.43;;;-1.20;99.90;;;;;;5031368;28;20289;-82
2022/01/22 09:09:23;;;;;;;18.63;8.37;;;-0.60;99.90;;;;;;5031309;28;20239;-82
2022/01/22 09:11:49;;;;;;;11.67;7.37;;;;;;;;;;5014028;28;20251;-82
2022/01/22 09:14:16;;;;;;;22.13;8.33;;;-1.80;99.90;;;;;;5031383;28;20200;-83
2022/01/22 09:16:43;;;;;;;17.20;8.40;;;-0.90;99.90;;;;;;5031029;28;20284;-82
2022/01/22 09:19:11;;;;;;;11.70;6.77;;;-0.50;99.90;;;;;;5031228;28;20205;-82
2022/01/22 09:21:41;;;;;;;17.83;8.20;;;0.10;99.90;;;;;;5030299;28;20206;-82
2022/01/22 09:24:07;;;;;;;18.63;9.10;;;;;;;;;;5030060;28;20265;-83
2022/01/22 09:26:33;;;;;;;13.70;6.77;;;;;;;;;;5016380;28;20196;-82
2022/01/22 09:29:00;;;;;;;16.50;7.50;;;;;;;;;;5017046;28;20217;-82
2022/01/22 09:31:28;;;;;;;15.03;7.70;;;-1.80;99.90;;;;;;5029577;28;20637;-83
2022/01/22 09:33:57;;;;;;;24.47;11.13;;;-1.80;99.90;;;;;;5028929;28;20180;-83
2022/01/22 09:36:23;;;;;;;21.83;9.90;;;-0.70;99.90;;;;;;5041646;28;20185;-84
2022/01/22 09:38:51;;;;;;;19.47;8.97;;;-1.80;99.90;;;;;;5012135;28;20189;-83
2022/01/22 09:41:18;;;;;;;13.53;7.50;;;-0.30;99.90;;;;;;5028431;28;20199;-82
2022/01/22 09:43:44;;;;;;;12.53;7.20;;;0.10;99.90;;;;;;5012373;28;20231;-82
2022/01/22 09:46:11;;;;;;;17.83;7.37;;;-1.80;99.90;;;;;;5012389;28;20188;-82
2022/01/22 09:48:44;;;;;;;11.80;6.40;;;0.80;99.90;;;;;;5029497;28;20550;-82
2022/01/22 09:51:11;;;;;;;12.10;6.10;;;-1.80;99.90;;;;;;5030393;28;20189;-82
2022/01/22 09:53:38;;;;;;;9.33;6.07;;;;;;;;;;5028399;28;20189;-83
2022/01/22 09:56:04;;;;;;;13.43;7.00;;;-1.70;99.90;;;;;;5028594;28;20200;-82
2022/01/22 09:58:30;;;;;;;8.03;5.47;;;0.40;99.90;;;;;;5012119;28;20349;-83
2022/01/22 10:01:21;;;;;;;19.60;8.00;;;-1.70;99.90;;;;;;5027858;28;20708;-83
2022/01/22 10:03:48;;;;;;;14.03;7.17;;;-1.50;99.90;;;;;;5027258;28;20232;-83
2022/01/22 10:06:16;;;;;;;18.17;8.43;;;-1.40;99.90;;;;;;5031352;28;20184;-83
2022/01/22 10:08:42;;;;;;;15.53;7.67;;;-0.70;99.90;;;;;;5033279;28;20270;-83
2022/01/22 10:11:17;;;;;;;16.83;9.03;;;0.60;99.90;;;;;;5015225;28;20335;-83
2022/01/22 10:13:52;;;;;;;11.87;7.77;;;-0.50;99.90;;;;;;5030992;28;20180;-83
2022/01/22 10:16:23;;;;;;;10.67;6.07;;;-1.30;99.90;;;;;;5031534;28;20194;-83
2022/01/22 10:19:17;;;;;;;13.23;5.90;;;-1.20;99.90;;;;;;5031279;28;20192;-85
2022/01/22 10:21:47;;;;;;;12.53;5.23;;;-1.10;99.90;;;;;;5030776;28;20967;-82
2022/01/22 10:24:40;;;;;;;9.17;5.57;;;1.30;99.90;;;;;;5029632;28;20660;-82
2022/01/22 10:27:36;;;;;;;8.93;4.57;;;-1.10;99.90;;;;;;5032655;28;20193;-83
2022/01/22 10:30:11;;;;;;;6.63;4.73;;;-1.10;99.90;;;;;;5031312;28;20293;-83
2022/01/22 10:35:19;;;;;;;8.13;5.17;;;1.30;99.90;;;;;;5035914;28;20192;-82
2022/01/22 10:37:45;;;;;;;13.43;6.23;;;-1.20;99.90;;;;;;5031238;28;20187;-83
2022/01/22 10:40:23;;;;;;;11.23;5.43;;;0.80;99.90;;;;;;5017601;28;20218;-82
2022/01/22 10:42:49;;;;;;;8.90;6.27;;;-1.20;99.90;;;;;;5029658;28;20216;-81
2022/01/22 10:45:23;;;;;;;10.33;6.03;;;-1.30;99.90;;;;;;5024509;28;20181;-81
2022/01/22 10:47:50;;;;;;;18.33;8.20;;;;;;;;;;5031742;28;20234;-81
2022/01/22 10:50:23;;;;;;;17.60;8.87;;;-1.20;99.90;;;;;;5017837;28;20691;-80
2022/01/22 10:52:55;;;;;;;16.77;8.80;;;-1.20;99.90;;;;;;5030159;28;20192;-81
2022/01/22 10:55:21;;;;;;;10.20;6.10;;;-1.40;99.90;;;;;;5031004;28;20577;-82
2022/01/22 10:58:09;;;;;;;13.20;6.33;;;-1.20;99.90;;;;;;4997985;28;20207;-81
2022/01/22 11:00:36;;;;;;;11.80;7.03;;;-1.30;99.90;;;;;;5032912;28;20193;-81
2022/01/22 11:03:22;;;;;;;10.80;5.57;;;-1.40;99.90;;;;;;5032305;28;20231;-79
2022/01/22 11:05:48;;;;;;;8.17;5.83;;;-1.30;99.90;;;;;;5031489;28;20193;-81
2022/01/22 11:08:14;;;;;;;11.13;7.30;;;-0.80;99.90;;;;;;5031324;28;20294;-81
2022/01/22 11:10:44;;;;;;;13.07;6.13;;;-1.30;99.90;;;;;;5013721;28;20276;-80
2022/01/22 11:13:09;;;;;;;24.83;9.50;;;-1.30;99.90;;;;;;5031335;28;20196;-82
2022/01/22 11:15:35;;;;;;;15.93;7.30;;;1.10;99.90;;;;;;5030958;28;20188;-81
2022/01/22 11:18:02;;;;;;;13.23;6.10;;;-1.30;99.90;;;;;;5030944;28;20216;-79
2022/01/22 11:20:32;;;;;;;20.73;9.53;;;-1.40;99.90;;;;;;5032056;28;20270;-81
2022/01/22 11:22:59;;;;;;;14.30;7.47;;;-0.30;99.90;;;;;;5032233;28;20193;-81
2022/01/22 11:25:26;;;;;;;5.87;4.03;;;0.60;99.90;;;;;;5031067;28;20252;-81
2022/01/22 11:27:53;;;;;;;10.60;6.47;;;0.50;99.90;;;;;;5025493;28;20195;-80
2022/01/22 11:30:25;;;;;;;8.27;5.13;;;-1.20;99.90;;;;;;5028620;28;20212;-81
2022/01/22 11:32:57;;;;;;;6.13;4.03;;;-1.30;99.90;;;;;;5028206;28;20191;-81
2022/01/22 11:35:40;;;;;;;6.77;4.83;;;0.00;99.90;;;;;;5032197;28;20279;-81
2022/01/22 11:38:15;;;;;;;10.60;6.27;;;-1.30;99.90;;;;;;5019141;28;20290;-81
2022/01/22 11:40:41;;;;;;;12.10;6.73;;;;;;;;;;5030807;28;20273;-81
2022/01/22 11:43:10;;;;;;;10.17;5.83;;;-1.20;99.90;;;;;;5013735;28;20213;-80
2022/01/22 11:45:38;;;;;;;8.73;5.23;;;;;;;;;;5032149;28;20250;-81
2022/01/22 11:48:26;;;;;;;9.37;4.47;;;-1.10;99.90;;;;;;5032249;28;20189;-81
2022/01/22 11:50:54;;;;;;;9.97;4.77;;;-0.90;99.90;;;;;;5030861;28;20303;-83
2022/01/22 11:53:34;;;;;;;9.47;5.20;;;-0.70;99.90;;;;;;5030475;28;20219;-83
2022/01/22 11:56:12;;;;;;;9.97;5.27;;;-0.60;99.90;;;;;;5029945;28;20582;-83
2022/01/22 11:58:56;;;;;;;13.10;8.67;;;-0.50;99.90;;;;;;5032197;28;20197;-81
2022/01/22 12:01:45;;;;;;;16.50;7.43;;;0.10;99.90;;;;;;5030991;28;20253;-81
2022/01/22 12:04:16;;;;;;;25.83;10.47;;;0.90;99.90;;;;;;5030926;28;20232;-81
2022/01/22 12:07:00;;;;;;;20.80;7.60;;;1.70;99.90;;;;;;4996040;28;20264;-80
2022/01/22 12:09:30;;;;;;;12.60;4.80;;;2.50;99.90;;;;;;4992300;28;20218;-82
2022/01/22 12:14:56;;;;;;;13.90;5.57;;;1.40;99.90;;;;;;5006925;28;20205;-82
2022/01/22 12:17:48;;;;;;;8.40;3.47;;;1.60;99.90;;;;;;4996271;28;20187;-83
2022/01/22 12:23:04;;;;;;;5.27;3.80;;;1.40;99.90;;;;;;5031807;28;20414;-83
2022/01/22 12:25:29;;;;;;;14.03;6.20;;;-0.10;99.90;;;;;;5003627;28;20185;-82
2022/01/22 12:27:56;;;;;;;14.83;6.93;;;0.70;99.90;;;;;;5013992;28;20254;-83
2022/01/22 12:30:39;;;;;;;16.37;6.83;;;2.00;99.90;;;;;;5029341;28;20203;-81
2022/01/22 12:33:12;;;;;;;12.00;5.20;;;-0.60;99.90;;;;;;5002763;28;20212;-83
2022/01/22 12:35:41;;;;;;;15.60;7.77;;;-0.80;99.90;;;;;;5008391;28;20546;-82
2022/01/22 12:38:49;;;;;;;12.73;6.27;;;-0.90;99.90;;;;;;5031659;28;20213;-82
2022/01/22 12:41:31;;;;;;;15.60;8.47;;;-1.00;99.90;;;;;;5008261;28;20235;-82
2022/01/22 12:44:34;;;;;;;10.00;5.73;;;0.80;99.90;;;;;;4997811;28;20186;-82
2022/01/22 12:47:13;;;;;;;7.47;4.40;;;-0.90;99.90;;;;;;5001174;28;20181;-82
2022/01/22 12:49:39;;;;;;;13.77;6.83;;;-0.90;99.90;;;;;;5022087;28;20208;-82
2022/01/22 12:52:10;;;;;;;12.83;5.87;;;-0.10;99.90;;;;;;5000715;28;20239;-82
2022/01/22 12:54:40;;;;;;;9.97;5.43;;;-0.90;99.90;;;;;;5050600;28;20189;-84
2022/01/22 12:57:09;;;;;;;8.20;5.13;;;-0.90;99.90;;;;;;5022803;28;20193;-84
2022/01/22 13:00:00;;;;;;;7.27;4.40;;;-0.70;99.90;;;;;;5034356;28;20236;-83
2022/01/22 13:02:43;;;;;;;7.10;4.83;;;-1.00;99.90;;;;;;5029524;28;20184;-83
2022/01/22 13:05:16;;;;;;;7.57;4.13;;;-0.90;99.90;;;;;;5043569;28;20186;-81
2022/01/22 13:07:55;;;;;;;7.53;5.43;;;-1.00;99.90;;;;;;5049402;28;20233;-83
2022/01/22 13:10:32;;;;;;;9.27;5.57;;;1.10;99.90;;;;;;5053053;28;20221;-84
2022/01/22 13:12:59;;;;;;;7.30;4.83;;;0.80;99.90;;;;;;5054150;28;20190;-83
2022/01/22 13:15:27;;;;;;;5.13;4.03;;;0.20;99.90;;;;;;5054583;28;20187;-84
2022/01/22 13:17:58;;;;;;;5.80;4.70;;;-1.00;99.90;;;;;;5052883;28;20193;-82
2022/01/22 13:20:32;;;;;;;8.27;4.57;;;-0.50;99.90;;;;;;5029811;28;20219;-82
2022/01/22 13:23:01;;;;;;;11.03;6.00;;;-1.10;99.90;;;;;;5030359;28;20188;-83
2022/01/22 13:25:27;;;;;;;7.23;4.63;;;;;;;;;;5032681;28;20186;-82
2022/01/22 13:28:09;;;;;;;9.60;5.33;;;-1.20;99.90;;;;;;5034155;28;20181;-82
2022/01/22 13:30:41;;;;;;;9.90;4.53;;;-1.20;99.90;;;;;;5049111;28;20196;-81
2022/01/22 13:33:30;;;;;;;5.93;3.93;;;-1.10;99.90;;;;;;5032712;28;20185;-82
2022/01/22 13:38:59;;;;;;;7.63;5.33;;;-0.40;99.90;;;;;;5033621;28;20542;-84
2022/01/22 13:49:45;;;;;;;9.13;5.93;;;-1.10;99.90;;;;;;5047748;28;20230;-84
2022/01/22 13:52:26;;;;;;;7.20;5.80;;;-1.10;99.90;;;;;;5035332;28;20193;-82
2022/01/22 13:54:54;;;;;;;9.63;5.90;;;-1.10;99.90;;;;;;5044375;28;20278;-84
2022/01/22 13:57:27;;;;;;;9.20;4.63;;;0.30;99.90;;;;;;5017802;28;20585;-85
2022/01/22 13:59:56;;;;;;;17.53;5.73;;;1.50;99.90;;;;;;5035923;28;20216;-83
2022/01/22 14:04:55;;;;;;;5.37;4.43;;;0.30;99.90;;;;;;5030007;28;20568;-82
2022/01/22 14:07:26;;;;;;;7.03;4.97;;;1.10;99.90;;;;;;5005094;28;20256;-83
2022/01/22 14:09:54;;;;;;;7.40;4.80;;;-1.20;99.90;;;;;;5031511;28;20205;-82
2022/01/22 14:12:20;;;;;;;16.07;9.27;;;-1.20;99.90;;;;;;4993473;28;20301;-83
2022/01/22 14:15:07;;;;;;;20.10;9.93;;;-1.20;99.90;;;;;;5004741;28;20236;-84
2022/01/22 14:17:42;;;;;;;18.53;11.10;;;-1.20;99.90;;;;;;4993469;28;20220;-83
2022/01/22 14:20:11;;;;;;;6.73;4.77;;;-1.20;99.90;;;;;;5026914;28;20232;-82
2022/01/22 14:23:07;;;;;;;18.87;9.37;;;-1.30;99.90;;;;;;4999784;28;20227;-82
2022/01/22 14:26:04;;;;;;;14.90;8.10;;;-0.10;99.90;;;;;;4981379;28;20231;-82
2022/01/22 14:28:50;;;;;;;14.80;8.33;;;-1.30;99.90;;;;;;4997491;28;20193;-82
2022/01/22 14:31:43;;;;;;;11.83;8.00;;;-0.70;99.90;;;;;;4982501;28;20189;-83
2022/01/22 14:34:28;;;;;;;11.93;7.33;;;-1.30;99.90;;;;;;5004456;28;20196;-82
2022/01/22 14:36:56;;;;;;;9.57;6.90;;;1.30;99.90;;;;;;5015323;28;20321;-80
2022/01/22 14:44:53;;;;;;;13.60;6.83;;;-1.40;99.90;;;;;;5015409;28;20204;-82
2022/01/22 14:47:21;;;;;;;16.23;8.90;;;-1.30;99.90;;;;;;5005202;28;20181;-83
2022/01/22 14:49:49;;;;;;;14.00;7.87;;;-1.40;99.90;;;;;;4991804;28;20241;-85
2022/01/22 14:52:19;;;;;;;14.47;9.07;;;-1.40;99.90;;;;;;5005434;28;20493;-81
2022/01/22 14:54:47;;;;;;;16.97;10.97;;;-1.40;99.90;;;;;;5002470;28;20221;-80
2022/01/22 14:57:14;;;;;;;14.50;9.40;;;-1.40;99.90;;;;;;4998610;28;20241;-81
2022/01/22 14:59:42;;;;;;;11.43;7.60;;;-1.40;99.90;;;;;;5011466;28;20211;-81
2022/01/22 15:02:09;;;;;;;16.07;8.47;;;-1.50;99.90;;;;;;5006777;28;20605;-82
2022/01/22 15:04:37;;;;;;;25.43;12.67;;;-1.50;99.90;;;;;;5033290;28;20232;-81
2022/01/22 15:07:06;;;;;;;19.40;9.67;;;-1.50;99.90;;;;;;5033153;28;20188;-82
2022/01/22 15:09:33;;;;;;;14.40;7.20;;;-1.50;99.90;;;;;;5026187;28;20211;-84
2022/01/22 15:12:02;;;;;;;13.53;8.43;;;-1.60;99.90;;;;;;5033085;28;20188;-82
2022/01/22 15:14:28;;;;;;;8.97;5.47;;;;;;;;;;5015186;28;20634;-82
2022/01/22 15:17:25;;;;;;;13.30;6.50;;;-1.60;99.90;;;;;;5015723;28;20192;-84
2022/01/22 15:19:50;;;;;;;9.13;5.00;;;-1.60;99.90;;;;;;5033001;28;20684;-81
2022/01/22 15:22:17;;;;;;;11.00;5.77;;;-1.60;99.90;;;;;;5030974;28;20212;-82
2022/01/22 15:24:46;;;;;;;13.00;7.17;;;-1.60;99.90;;;;;;5031276;28;20197;-82
2022/01/22 15:27:14;;;;;;;13.40;7.37;;;-1.70;99.90;;;;;;5033186;28;20198;-83
2022/01/22 15:29:54;;;;;;;11.60;6.83;;;-1.60;99.90;;;;;;5015727;28;20222;-83
2022/01/22 15:32:39;;;;;;;13.57;8.50;;;;;;;;;;5034528;28;20185;-82
2022/01/22 15:35:07;;;;;;;13.87;8.50;;;-1.60;99.90;;;;;;5028735;28;20188;-83
2022/01/22 15:37:37;;;;;;;12.87;8.20;;;-1.60;99.90;;;;;;5031032;28;20287;-84